CheckWX is a tool to help pilots better visualize weather data.  It is not intended as a substitute for an official pre-flight weather briefing.

14:41:33 UTC

BGGH METAR
Godthaab / Nuuk Airport
Nuuk, Greenland
Current

52 mins ago

BGGH 261350Z 04009KT 9999 BKN210 M01/M09 Q1009
Observed
Apr-26 @ 13:50 UTC
Wind
  • 040° at 9 KTS
Visibility
10,000+ meters
Flight Rules
VFR
Cloud Levels
  • Broken at 21,000' AGL
Temperature
-1°C / 30°F
Dewpoint
-9°C / 16°F
Humidity
55%
Altimeter
29.79" Hg
Pressure
1008.92 hPa
Previous

2 hours ago

BGGH 261250Z 04012KT 9999 BKN200 M01/M09 Q1008
Observed
Apr-26 @ 12:50 UTC
Wind
  • 040° at 12 KTS
Visibility
10,000+ meters
Flight Rules
VFR
Cloud Levels
  • Broken at 20,000' AGL
Temperature
-1°C / 30°F
Dewpoint
-9°C / 16°F
Humidity
55%
Altimeter
29.76" Hg
Pressure
1007.92 hPa
Previous

3 hours ago

BGGH 261150Z 05013KT 9999 FEW110 SCT200 M02/M10 Q1009
Observed
Apr-26 @ 11:50 UTC
Wind
  • 050° at 13 KTS
Visibility
10,000+ meters
Flight Rules
VFR
Cloud Levels
  • Few at 11,000' AGL
  • Scattered at 20,000' AGL
Temperature
-2°C / 28°F
Dewpoint
-10°C / 14°F
Humidity
55%
Altimeter
29.79" Hg
Pressure
1008.92 hPa